X  Schlie├čen Metar Luftfahrt Wetterdaten     EFPO Pori Airport
Temperatur
11°C Temperatur
8°C Taupunkt
82% Feuchtigkeit



Wind
1 M/S
2 MPH
3 KM/H
2 KTS



140°
SO
Aktuelle Wetterlage

Meistens vereinzelte Wolken Meistens vereinzelte Wolken
Luftdruck 1005.92 (hPa) - 29.7 (inHg)
Sichtweite 6.2 (Meile) - 10 (km)
Flughafen
Flughafen Code EFPO

Position : Pori Airport
Entfernung: 40 (km)

Metar:
EFPO 221750Z AUTO 14002KT 9999 SCT025 11/08 Q1006

Zeit: 22-09-2020 20:50 EEST